sensor_id;sensor_type;location;lat;lon;timestamp;pressure;altitude;pressure_sealevel;temperature;humidity
8047;BME280;74083;42.516;23.358;2024-01-10T00:01:46;88963.66;;;0.18;60.96
8047;BME280;74083;42.516;23.358;2024-01-10T00:04:31;88966.19;;;0.16;60.93
8047;BME280;74083;42.516;23.358;2024-01-10T00:07:18;88966.13;;;0.18;60.98
8047;BME280;74083;42.516;23.358;2024-01-10T00:10:05;88962.03;;;0.17;60.78
8047;BME280;74083;42.516;23.358;2024-01-10T00:12:51;88957.94;;;0.16;60.87
8047;BME280;74083;42.516;23.358;2024-01-10T00:15:36;88961.31;;;0.13;60.96
8047;BME280;74083;42.516;23.358;2024-01-10T00:18:22;88957.19;;;0.12;60.83
8047;BME280;74083;42.516;23.358;2024-01-10T00:21:08;88967.09;;;0.14;60.93
8047;BME280;74083;42.516;23.358;2024-01-10T00:23:55;88964.63;;;0.12;61.22
8047;BME280;74083;42.516;23.358;2024-01-10T00:26:41;88960.63;;;0.08;61.00
8047;BME280;74083;42.516;23.358;2024-01-10T00:29:26;88965.44;;;0.13;61.03
8047;BME280;74083;42.516;23.358;2024-01-10T00:32:12;88969.59;;;0.12;61.21
8047;BME280;74083;42.516;23.358;2024-01-10T00:34:58;88974.59;;;0.11;61.09
8047;BME280;74083;42.516;23.358;2024-01-10T00:37:43;88976.22;;;0.12;61.23
8047;BME280;74083;42.516;23.358;2024-01-10T00:40:30;88968.88;;;0.09;61.07
8047;BME280;74083;42.516;23.358;2024-01-10T00:43:16;88968.88;;;0.09;60.88
8047;BME280;74083;42.516;23.358;2024-01-10T00:46:01;88978.88;;;0.06;61.14
8047;BME280;74083;42.516;23.358;2024-01-10T00:48:47;88981.34;;;0.06;61.26
8047;BME280;74083;42.516;23.358;2024-01-10T00:51:32;88980.47;;;0.07;61.16
8047;BME280;74083;42.516;23.358;2024-01-10T00:54:18;88987.91;;;0.07;61.21
8047;BME280;74083;42.516;23.358;2024-01-10T00:57:05;88977.16;;;0.08;61.10
8047;BME280;74083;42.516;23.358;2024-01-10T00:59:51;88979.72;;;0.05;60.94
8047;BME280;74083;42.516;23.358;2024-01-10T01:02:37;88978.97;;;0.03;61.16
8047;BME280;74083;42.516;23.358;2024-01-10T01:05:24;88974.00;;;0.03;61.12
8047;BME280;74083;42.516;23.358;2024-01-10T01:08:09;88971.44;;;0.06;61.38
8047;BME280;74083;42.516;23.358;2024-01-10T01:10:55;88964.88;;;0.03;61.12
8047;BME280;74083;42.516;23.358;2024-01-10T01:13:42;88971.53;;;0.03;61.36
8047;BME280;74083;42.516;23.358;2024-01-10T01:16:28;88968.16;;;0.05;61.25
8047;BME280;74083;42.516;23.358;2024-01-10T01:19:13;88962.53;;;0.00;61.49
8047;BME280;74083;42.516;23.358;2024-01-10T01:21:58;88970.72;;;0.00;61.34
8047;BME280;74083;42.516;23.358;2024-01-10T01:24:44;88969.06;;;0.03;61.27
8047;BME280;74083;42.516;23.358;2024-01-10T01:27:29;88973.19;;;0.02;61.45
8047;BME280;74083;42.516;23.358;2024-01-10T01:30:16;88977.31;;;0.02;61.42
8047;BME280;74083;42.516;23.358;2024-01-10T01:33:04;88973.28;;;-0.01;61.46
8047;BME280;74083;42.516;23.358;2024-01-10T01:35:49;88973.34;;;-0.04;61.48
8047;BME280;74083;42.516;23.358;2024-01-10T01:38:36;88979.03;;;-0.01;61.55
8047;BME280;74083;42.516;23.358;2024-01-10T01:41:22;88972.53;;;-0.05;61.37
8047;BME280;74083;42.516;23.358;2024-01-10T01:44:07;88968.34;;;-0.03;61.67
8047;BME280;74083;42.516;23.358;2024-01-10T01:46:55;88967.41;;;0.02;61.39
8047;BME280;74083;42.516;23.358;2024-01-10T01:49:41;88961.69;;;-0.01;61.41
8047;BME280;74083;42.516;23.358;2024-01-10T01:52:29;88959.31;;;-0.04;61.66
8047;BME280;74083;42.516;23.358;2024-01-10T01:55:16;88956.84;;;-0.05;61.68
8047;BME280;74083;42.516;23.358;2024-01-10T01:58:02;88950.97;;;-0.01;61.67
8047;BME280;74083;42.516;23.358;2024-01-10T02:00:48;88949.41;;;-0.04;62.04
8047;BME280;74083;42.516;23.358;2024-01-10T02:03:35;88947.75;;;-0.05;61.91
8047;BME280;74083;42.516;23.358;2024-01-10T02:06:21;88937.03;;;-0.04;61.80
8047;BME280;74083;42.516;23.358;2024-01-10T02:09:07;88938.69;;;-0.04;62.02
8047;BME280;74083;42.516;23.358;2024-01-10T02:11:52;88936.16;;;-0.03;62.17
8047;BME280;74083;42.516;23.358;2024-01-10T02:14:38;88929.59;;;-0.04;62.30
8047;BME280;74083;42.516;23.358;2024-01-10T02:17:24;88930.34;;;-0.02;62.20
8047;BME280;74083;42.516;23.358;2024-01-10T02:20:14;88929.59;;;-0.04;62.28
8047;BME280;74083;42.516;23.358;2024-01-10T02:23:01;88931.31;;;-0.07;62.16
8047;BME280;74083;42.516;23.358;2024-01-10T02:25:48;88934.63;;;-0.07;62.54
8047;BME280;74083;42.516;23.358;2024-01-10T02:28:35;88933.72;;;-0.04;62.42
8047;BME280;74083;42.516;23.358;2024-01-10T02:31:20;88932.09;;;-0.05;62.58
8047;BME280;74083;42.516;23.358;2024-01-10T02:34:07;88927.19;;;-0.07;62.43
8047;BME280;74083;42.516;23.358;2024-01-10T02:36:52;88931.19;;;-0.03;62.22
8047;BME280;74083;42.516;23.358;2024-01-10T02:39:37;88926.31;;;-0.06;62.43
8047;BME280;74083;42.516;23.358;2024-01-10T02:42:24;88928.13;;;-0.11;62.31
8047;BME280;74083;42.516;23.358;2024-01-10T02:45:10;88937.94;;;-0.08;62.18
8047;BME280;74083;42.516;23.358;2024-01-10T02:47:55;88934.72;;;-0.11;62.36
8047;BME280;74083;42.516;23.358;2024-01-10T02:50:40;88938.09;;;-0.12;62.29
8047;BME280;74083;42.516;23.358;2024-01-10T02:53:26;88938.09;;;-0.14;62.15
8047;BME280;74083;42.516;23.358;2024-01-10T02:56:14;88938.16;;;-0.15;61.83
8047;BME280;74083;42.516;23.358;2024-01-10T02:59:01;88943.88;;;-0.13;61.99
8047;BME280;74083;42.516;23.358;2024-01-10T03:01:47;88945.63;;;-0.17;61.81
8047;BME280;74083;42.516;23.358;2024-01-10T03:04:32;88953.91;;;-0.18;61.79
8047;BME280;74083;42.516;23.358;2024-01-10T03:07:18;88949.72;;;-0.16;61.92
8047;BME280;74083;42.516;23.358;2024-01-10T03:10:04;88956.38;;;-0.18;61.51
8047;BME280;74083;42.516;23.358;2024-01-10T03:12:50;88954.75;;;-0.19;61.62
8047;BME280;74083;42.516;23.358;2024-01-10T03:15:37;88955.66;;;-0.21;61.82
8047;BME280;74083;42.516;23.358;2024-01-10T03:18:23;88960.63;;;-0.23;61.83
8047;BME280;74083;42.516;23.358;2024-01-10T03:21:09;88959.78;;;-0.22;61.71
8047;BME280;74083;42.516;23.358;2024-01-10T03:23:55;88966.41;;;-0.22;61.97
8047;BME280;74083;42.516;23.358;2024-01-10T03:26:40;88959.88;;;-0.25;61.83
8047;BME280;74083;42.516;23.358;2024-01-10T03:29:26;88960.69;;;-0.24;61.91
8047;BME280;74083;42.516;23.358;2024-01-10T03:32:13;88955.72;;;-0.24;61.67
8047;BME280;74083;42.516;23.358;2024-01-10T03:34:59;88952.38;;;-0.23;61.93
8047;BME280;74083;42.516;23.358;2024-01-10T03:37:44;88951.59;;;-0.24;61.87
8047;BME280;74083;42.516;23.358;2024-01-10T03:40:29;88952.44;;;-0.25;62.25
8047;BME280;74083;42.516;23.358;2024-01-10T03:43:14;88944.13;;;-0.22;62.20
8047;BME280;74083;42.516;23.358;2024-01-10T03:46:01;88951.59;;;-0.24;62.16
8047;BME280;74083;42.516;23.358;2024-01-10T03:48:47;88952.44;;;-0.25;62.35
8047;BME280;74083;42.516;23.358;2024-01-10T03:51:33;88959.81;;;-0.23;62.21
8047;BME280;74083;42.516;23.358;2024-01-10T03:54:18;88958.22;;;-0.24;62.34
8047;BME280;74083;42.516;23.358;2024-01-10T03:57:04;88951.59;;;-0.24;62.42
8047;BME280;74083;42.516;23.358;2024-01-10T03:59:50;88951.59;;;-0.24;62.61
8047;BME280;74083;42.516;23.358;2024-01-10T04:02:36;88957.31;;;-0.22;62.53
8047;BME280;74083;42.516;23.358;2024-01-10T04:05:24;88954.88;;;-0.23;62.63
8047;BME280;74083;42.516;23.358;2024-01-10T04:08:09;88961.59;;;-0.27;62.63
8047;BME280;74083;42.516;23.358;2024-01-10T04:10:55;88967.28;;;-0.25;62.49
8047;BME280;74083;42.516;23.358;2024-01-10T04:13:41;88960.72;;;-0.26;62.52
8047;BME280;74083;42.516;23.358;2024-01-10T04:16:26;88965.75;;;-0.29;62.99
8047;BME280;74083;42.516;23.358;2024-01-10T04:19:12;88965.66;;;-0.26;63.11
8047;BME280;74083;42.516;23.358;2024-01-10T04:21:59;88966.44;;;-0.24;63.07
8047;BME280;74083;42.516;23.358;2024-01-10T04:24:45;88972.19;;;-0.23;63.01
8047;BME280;74083;42.516;23.358;2024-01-10T04:27:31;88968.06;;;-0.23;63.02
8047;BME280;74083;42.516;23.358;2024-01-10T04:30:16;88972.94;;;-0.20;63.16
8047;BME280;74083;42.516;23.358;2024-01-10T04:33:02;88973.81;;;-0.21;63.62
8047;BME280;74083;42.516;23.358;2024-01-10T04:35:47;88973.00;;;-0.21;63.28
8047;BME280;74083;42.516;23.358;2024-01-10T04:38:35;88983.72;;;-0.21;63.35
8047;BME280;74083;42.516;23.358;2024-01-10T04:41:20;88979.59;;;-0.22;63.60
8047;BME280;74083;42.516;23.358;2024-01-10T04:44:06;88987.06;;;-0.23;63.43
8047;BME280;74083;42.516;23.358;2024-01-10T04:46:51;88994.47;;;-0.23;63.39
8047;BME280;74083;42.516;23.358;2024-01-10T04:49:37;88990.41;;;-0.24;63.59
8047;BME280;74083;42.516;23.358;2024-01-10T04:52:22;88997.78;;;-0.23;63.50
8047;BME280;74083;42.516;23.358;2024-01-10T04:55:09;89001.91;;;-0.23;63.68
8047;BME280;74083;42.516;23.358;2024-01-10T04:57:55;88998.63;;;-0.24;63.53
8047;BME280;74083;42.516;23.358;2024-01-10T05:00:40;88997.00;;;-0.25;63.66
8047;BME280;74083;42.516;23.358;2024-01-10T05:03:26;88990.41;;;-0.26;63.63
8047;BME280;74083;42.516;23.358;2024-01-10T05:06:12;88999.47;;;-0.25;63.49
8047;BME280;74083;42.516;23.358;2024-01-10T05:08:58;89008.56;;;-0.25;63.55
8047;BME280;74083;42.516;23.358;2024-01-10T05:11:45;89007.81;;;-0.29;63.69
8047;BME280;74083;42.516;23.358;2024-01-10T05:14:34;89004.50;;;-0.28;63.42
8047;BME280;74083;42.516;23.358;2024-01-10T05:17:20;89008.66;;;-0.28;64.09
8047;BME280;74083;42.516;23.358;2024-01-10T05:20:07;89011.16;;;-0.30;63.52
8047;BME280;74083;42.516;23.358;2024-01-10T05:22:53;89012.84;;;-0.32;63.59
8047;BME280;74083;42.516;23.358;2024-01-10T05:25:42;89007.13;;;-0.32;63.31
8047;BME280;74083;42.516;23.358;2024-01-10T05:28:29;89005.41;;;-0.30;63.30
8047;BME280;74083;42.516;23.358;2024-01-10T05:31:15;89014.56;;;-0.34;63.83
8047;BME280;74083;42.516;23.358;2024-01-10T05:34:01;89013.75;;;-0.34;63.49
8047;BME280;74083;42.516;23.358;2024-01-10T05:36:46;89021.16;;;-0.33;63.31
8047;BME280;74083;42.516;23.358;2024-01-10T05:39:33;89023.66;;;-0.34;63.44
8047;BME280;74083;42.516;23.358;2024-01-10T05:42:19;89017.03;;;-0.34;63.57
8047;BME280;74083;42.516;23.358;2024-01-10T05:45:07;89014.63;;;-0.35;63.53
8047;BME280;74083;42.516;23.358;2024-01-10T05:47:53;89016.28;;;-0.36;63.45
8047;BME280;74083;42.516;23.358;2024-01-10T05:50:39;89023.72;;;-0.37;63.76
8047;BME280;74083;42.516;23.358;2024-01-10T05:53:24;89022.13;;;-0.38;63.55
8047;BME280;74083;42.516;23.358;2024-01-10T05:56:10;89026.25;;;-0.39;63.77
8047;BME280;74083;42.516;23.358;2024-01-10T05:58:56;89028.69;;;-0.37;63.55
8047;BME280;74083;42.516;23.358;2024-01-10T06:01:43;89039.47;;;-0.40;63.79
8047;BME280;74083;42.516;23.358;2024-01-10T06:04:29;89041.03;;;-0.37;63.71
8047;BME280;74083;42.516;23.358;2024-01-10T06:07:15;89039.44;;;-0.38;63.63
8047;BME280;74083;42.516;23.358;2024-01-10T06:10:01;89042.72;;;-0.38;63.59
8047;BME280;74083;42.516;23.358;2024-01-10T06:12:46;89041.91;;;-0.38;63.74
8047;BME280;74083;42.516;23.358;2024-01-10T06:15:32;89049.38;;;-0.40;64.16
8047;BME280;74083;42.516;23.358;2024-01-10T06:18:19;89044.41;;;-0.40;63.80
8047;BME280;74083;42.516;23.358;2024-01-10T06:21:05;89046.94;;;-0.41;63.22
8047;BME280;74083;42.516;23.358;2024-01-10T06:23:51;89045.31;;;-0.44;63.54
8047;BME280;74083;42.516;23.358;2024-01-10T06:26:36;89059.34;;;-0.43;63.58
8047;BME280;74083;42.516;23.358;2024-01-10T06:29:21;89052.72;;;-0.42;63.64
8047;BME280;74083;42.516;23.358;2024-01-10T06:32:07;89059.34;;;-0.43;63.67
8047;BME280;74083;42.516;23.358;2024-01-10T06:34:54;89059.41;;;-0.44;63.61
8047;BME280;74083;42.516;23.358;2024-01-10T06:37:40;89057.78;;;-0.47;63.75
8047;BME280;74083;42.516;23.358;2024-01-10T06:40:28;89060.25;;;-0.47;63.49
8047;BME280;74083;42.516;23.358;2024-01-10T06:43:13;89062.81;;;-0.50;63.39
8047;BME280;74083;42.516;23.358;2024-01-10T06:45:59;89064.44;;;-0.49;63.29
8047;BME280;74083;42.516;23.358;2024-01-10T06:48:45;89061.25;;;-0.54;63.25
8047;BME280;74083;42.516;23.358;2024-01-10T06:51:31;89068.63;;;-0.52;63.32
8047;BME280;74083;42.516;23.358;2024-01-10T06:54:17;89075.19;;;-0.50;63.26
8047;BME280;74083;42.516;23.358;2024-01-10T06:57:03;89073.59;;;-0.52;63.19
8047;BME280;74083;42.516;23.358;2024-01-10T06:59:49;89073.50;;;-0.49;63.15
8047;BME280;74083;42.516;23.358;2024-01-10T07:02:35;89071.09;;;-0.52;63.24
8047;BME280;74083;42.516;23.358;2024-01-10T07:05:21;89078.50;;;-0.51;63.36
8047;BME280;74083;42.516;23.358;2024-01-10T07:08:07;89078.53;;;-0.52;63.28
8047;BME280;74083;42.516;23.358;2024-01-10T07:10:53;89075.22;;;-0.51;63.49
8047;BME280;74083;42.516;23.358;2024-01-10T07:13:40;89082.63;;;-0.50;63.82
8047;BME280;74083;42.516;23.358;2024-01-10T07:16:26;89085.00;;;-0.47;63.60
8047;BME280;74083;42.516;23.358;2024-01-10T07:19:12;89080.06;;;-0.47;63.87
8047;BME280;74083;42.516;23.358;2024-01-10T07:21:58;89084.16;;;-0.46;63.86
8047;BME280;74083;42.516;23.358;2024-01-10T07:24:46;89083.34;;;-0.46;63.93
8047;BME280;74083;42.516;23.358;2024-01-10T07:27:32;89085.00;;;-0.47;63.96
8047;BME280;74083;42.516;23.358;2024-01-10T07:30:17;89092.44;;;-0.47;63.95
8047;BME280;74083;42.516;23.358;2024-01-10T07:33:03;89093.16;;;-0.42;64.08
8047;BME280;74083;42.516;23.358;2024-01-10T07:35:49;89095.63;;;-0.42;64.05
8047;BME280;74083;42.516;23.358;2024-01-10T07:38:34;89100.59;;;-0.43;64.25
8047;BME280;74083;42.516;23.358;2024-01-10T07:41:21;89097.31;;;-0.44;64.21
8047;BME280;74083;42.516;23.358;2024-01-10T07:44:07;89099.75;;;-0.42;64.05
8047;BME280;74083;42.516;23.358;2024-01-10T07:46:53;89094.00;;;-0.43;64.28
8047;BME280;74083;42.516;23.358;2024-01-10T07:49:39;89095.66;;;-0.43;64.33
8047;BME280;74083;42.516;23.358;2024-01-10T07:52:25;89098.13;;;-0.43;64.29
8047;BME280;74083;42.516;23.358;2024-01-10T07:55:10;89102.25;;;-0.44;64.42
8047;BME280;74083;42.516;23.358;2024-01-10T07:57:57;89098.13;;;-0.43;64.33
8047;BME280;74083;42.516;23.358;2024-01-10T08:00:42;89095.69;;;-0.45;64.40
8047;BME280;74083;42.516;23.358;2024-01-10T08:03:29;89099.75;;;-0.42;64.38
8047;BME280;74083;42.516;23.358;2024-01-10T08:06:14;89099.75;;;-0.42;64.48
8047;BME280;74083;42.516;23.358;2024-01-10T08:09:01;89102.19;;;-0.41;64.34
8047;BME280;74083;42.516;23.358;2024-01-10T08:11:48;89102.16;;;-0.39;64.62
8047;BME280;74083;42.516;23.358;2024-01-10T08:14:35;89101.31;;;-0.38;64.58
8047;BME280;74083;42.516;23.358;2024-01-10T08:17:21;89103.00;;;-0.40;64.69
8047;BME280;74083;42.516;23.358;2024-01-10T08:20:08;89110.41;;;-0.39;64.89
8047;BME280;74083;42.516;23.358;2024-01-10T08:22:55;89112.09;;;-0.41;65.06
8047;BME280;74083;42.516;23.358;2024-01-10T08:25:41;89117.84;;;-0.40;65.11
8047;BME280;74083;42.516;23.358;2024-01-10T08:28:28;89118.66;;;-0.40;65.04
8047;BME280;74083;42.516;23.358;2024-01-10T08:31:17;89119.50;;;-0.41;65.22
8047;BME280;74083;42.516;23.358;2024-01-10T08:34:03;89117.09;;;-0.42;65.31
8047;BME280;74083;42.516;23.358;2024-01-10T08:36:48;89117.84;;;-0.40;65.56
8047;BME280;74083;42.516;23.358;2024-01-10T08:39:35;89120.31;;;-0.39;65.43
8047;BME280;74083;42.516;23.358;2024-01-10T08:42:21;89118.66;;;-0.40;65.79
8047;BME280;74083;42.516;23.358;2024-01-10T08:45:07;89103.91;;;-0.43;65.63
8047;BME280;74083;42.516;23.358;2024-01-10T08:47:55;89112.84;;;-0.37;65.54
8047;BME280;74083;42.516;23.358;2024-01-10T08:50:42;89114.47;;;-0.36;65.84
8047;BME280;74083;42.516;23.358;2024-01-10T08:53:28;89114.47;;;-0.36;65.85
8047;BME280;74083;42.516;23.358;2024-01-10T08:56:15;89121.91;;;-0.38;66.31
8047;BME280;74083;42.516;23.358;2024-01-10T08:59:00;89120.19;;;-0.34;66.34
8047;BME280;74083;42.516;23.358;2024-01-10T09:01:46;89126.84;;;-0.36;66.64
8047;BME280;74083;42.516;23.358;2024-01-10T09:04:33;89122.72;;;-0.37;66.77
8047;BME280;74083;42.516;23.358;2024-01-10T09:07:19;89131.78;;;-0.36;67.22
8047;BME280;74083;42.516;23.358;2024-01-10T09:10:06;89135.09;;;-0.36;67.34
8047;BME280;74083;42.516;23.358;2024-01-10T09:12:52;89139.97;;;-0.33;67.28
8047;BME280;74083;42.516;23.358;2024-01-10T09:15:37;89131.69;;;-0.32;67.10
8047;BME280;74083;42.516;23.358;2024-01-10T09:18:23;89137.50;;;-0.33;67.38
8047;BME280;74083;42.516;23.358;2024-01-10T09:21:10;89133.38;;;-0.34;67.31
8047;BME280;74083;42.516;23.358;2024-01-10T09:23:56;89133.38;;;-0.34;67.55
8047;BME280;74083;42.516;23.358;2024-01-10T09:26:43;89128.56;;;-0.38;67.48
8047;BME280;74083;42.516;23.358;2024-01-10T09:29:29;89134.28;;;-0.36;67.41
8047;BME280;74083;42.516;23.358;2024-01-10T09:32:15;89131.69;;;-0.32;67.66
8047;BME280;74083;42.516;23.358;2024-01-10T09:35:01;89127.59;;;-0.33;67.57
8047;BME280;74083;42.516;23.358;2024-01-10T09:37:48;89128.44;;;-0.34;67.73
8047;BME280;74083;42.516;23.358;2024-01-10T09:40:33;89121.00;;;-0.34;67.88
8047;BME280;74083;42.516;23.358;2024-01-10T09:43:20;89120.16;;;-0.33;68.11
8047;BME280;74083;42.516;23.358;2024-01-10T09:46:07;89125.88;;;-0.31;68.16
8047;BME280;74083;42.516;23.358;2024-01-10T09:48:54;89126.66;;;-0.29;68.16
8047;BME280;74083;42.516;23.358;2024-01-10T09:51:40;89131.59;;;-0.29;67.61
8047;BME280;74083;42.516;23.358;2024-01-10T09:54:30;89135.75;;;-0.29;68.13
8047;BME280;74083;42.516;23.358;2024-01-10T09:57:16;89128.28;;;-0.28;68.15
8047;BME280;74083;42.516;23.358;2024-01-10T10:00:04;89136.50;;;-0.26;68.40
8047;BME280;74083;42.516;23.358;2024-01-10T10:02:56;89131.53;;;-0.26;68.39
8047;BME280;74083;42.516;23.358;2024-01-10T10:05:42;89131.47;;;-0.23;68.59
8047;BME280;74083;42.516;23.358;2024-01-10T10:08:28;89133.91;;;-0.21;68.60
8047;BME280;74083;42.516;23.358;2024-01-10T10:11:15;89135.59;;;-0.23;68.66
8047;BME280;74083;42.516;23.358;2024-01-10T10:14:14;89130.63;;;-0.22;68.49
8047;BME280;74083;42.516;23.358;2024-01-10T10:17:13;89115.78;;;-0.23;68.54
8047;BME280;74083;42.516;23.358;2024-01-10T10:20:03;89132.25;;;-0.21;68.59
8047;BME280;74083;42.516;23.358;2024-01-10T10:23:07;89119.06;;;-0.21;68.73
8047;BME280;74083;42.516;23.358;2024-01-10T10:25:54;89113.28;;;-0.22;68.75
8047;BME280;74083;42.516;23.358;2024-01-10T10:28:42;89109.22;;;-0.24;69.35
8047;BME280;74083;42.516;23.358;2024-01-10T10:31:28;89108.44;;;-0.26;69.83
8047;BME280;74083;42.516;23.358;2024-01-10T10:34:20;89114.34;;;-0.32;70.02
8047;BME280;74083;42.516;23.358;2024-01-10T10:37:06;89106.84;;;-0.29;69.79
8047;BME280;74083;42.516;23.358;2024-01-10T10:39:51;89106.97;;;-0.33;70.31
8047;BME280;74083;42.516;23.358;2024-01-10T10:42:39;89107.00;;;-0.35;70.39
8047;BME280;74083;42.516;23.358;2024-01-10T10:45:30;89101.13;;;-0.31;70.35
8047;BME280;74083;42.516;23.358;2024-01-10T10:48:18;89102.78;;;-0.30;70.56
8047;BME280;74083;42.516;23.358;2024-01-10T10:51:05;89091.22;;;-0.31;70.69
8047;BME280;74083;42.516;23.358;2024-01-10T10:53:54;89090.53;;;-0.36;71.26
8047;BME280;74083;42.516;23.358;2024-01-10T10:56:40;89094.75;;;-0.39;71.48
8047;BME280;74083;42.516;23.358;2024-01-10T10:59:29;89082.38;;;-0.41;71.45
8047;BME280;74083;42.516;23.358;2024-01-10T11:02:21;89078.19;;;-0.37;71.58
8047;BME280;74083;42.516;23.358;2024-01-10T11:05:08;89079.75;;;-0.33;71.54
8047;BME280;74083;42.516;23.358;2024-01-10T11:07:54;89080.59;;;-0.34;72.06
8047;BME280;74083;42.516;23.358;2024-01-10T11:10:43;89078.16;;;-0.36;71.72
8047;BME280;74083;42.516;23.358;2024-01-10T11:13:42;89078.91;;;-0.34;71.88
8047;BME280;74083;42.516;23.358;2024-01-10T11:16:48;89068.94;;;-0.31;72.34
8047;BME280;74083;42.516;23.358;2024-01-10T11:19:58;89069.69;;;-0.27;72.21
8047;BME280;74083;42.516;23.358;2024-01-10T11:23:04;89068.88;;;-0.28;72.09
8047;BME280;74083;42.516;23.358;2024-01-10T11:25:54;89067.16;;;-0.24;72.21
8047;BME280;74083;42.516;23.358;2024-01-10T11:28:42;89066.28;;;-0.23;72.45
8047;BME280;74083;42.516;23.358;2024-01-10T11:31:28;89065.44;;;-0.22;72.42
8047;BME280;74083;42.516;23.358;2024-01-10T11:34:14;89069.47;;;-0.18;72.61
8047;BME280;74083;42.516;23.358;2024-01-10T11:37:11;89065.28;;;-0.16;72.66
8047;BME280;74083;42.516;23.358;2024-01-10T11:39:57;89068.56;;;-0.16;72.08
8047;BME280;74083;42.516;23.358;2024-01-10T11:42:44;89061.06;;;-0.13;71.72
8047;BME280;74083;42.516;23.358;2024-01-10T11:45:37;89068.50;;;-0.13;71.90
8047;BME280;74083;42.516;23.358;2024-01-10T11:48:26;89065.94;;;-0.10;71.86
8047;BME280;74083;42.516;23.358;2024-01-10T11:51:13;89061.00;;;-0.10;71.69
8047;BME280;74083;42.516;23.358;2024-01-10T11:54:01;89059.19;;;-0.03;72.19
8047;BME280;74083;42.516;23.358;2024-01-10T11:56:47;89055.03;;;-0.03;71.71
8047;BME280;74083;42.516;23.358;2024-01-10T11:59:32;89057.41;;;0.02;71.80
8047;BME280;74083;42.516;23.358;2024-01-10T12:02:19;89047.50;;;0.02;71.71
8047;BME280;74083;42.516;23.358;2024-01-10T12:05:06;89040.00;;;0.04;71.58
8047;BME280;74083;42.516;23.358;2024-01-10T12:07:53;89039.16;;;0.05;71.58
8047;BME280;74083;42.516;23.358;2024-01-10T12:10:41;89036.56;;;0.09;71.56
8047;BME280;74083;42.516;23.358;2024-01-10T12:13:26;89041.44;;;0.12;71.12
8047;BME280;74083;42.516;23.358;2024-01-10T12:16:12;89036.53;;;0.11;71.02
8047;BME280;74083;42.516;23.358;2024-01-10T12:18:58;89032.34;;;0.13;70.74
8047;BME280;74083;42.516;23.358;2024-01-10T12:21:44;89028.19;;;0.13;70.99
8047;BME280;74083;42.516;23.358;2024-01-10T12:24:30;89029.03;;;0.12;70.58
8047;BME280;74083;42.516;23.358;2024-01-10T12:27:17;89033.22;;;0.12;70.54
8047;BME280;74083;42.516;23.358;2024-01-10T12:30:05;89029.09;;;0.11;70.31
8047;BME280;74083;42.516;23.358;2024-01-10T12:32:51;89024.91;;;0.13;70.47
8047;BME280;74083;42.516;23.358;2024-01-10T12:35:37;89024.00;;;0.15;70.22
8047;BME280;74083;42.516;23.358;2024-01-10T12:38:27;89024.06;;;0.14;70.29
8047;BME280;74083;42.516;23.358;2024-01-10T12:41:14;89032.31;;;0.14;70.08
8047;BME280;74083;42.516;23.358;2024-01-10T12:44:03;89027.22;;;0.19;69.87
8047;BME280;74083;42.516;23.358;2024-01-10T12:46:51;89027.97;;;0.21;69.68
8047;BME280;74083;42.516;23.358;2024-01-10T12:49:37;89023.94;;;0.18;69.95
8047;BME280;74083;42.516;23.358;2024-01-10T12:52:22;89028.84;;;0.20;70.11
8047;BME280;74083;42.516;23.358;2024-01-10T12:55:09;89028.13;;;0.16;69.84
8047;BME280;74083;42.516;23.358;2024-01-10T12:57:55;89028.03;;;0.19;69.78
8047;BME280;74083;42.516;23.358;2024-01-10T13:00:45;89016.50;;;0.18;69.93
8047;BME280;74083;42.516;23.358;2024-01-10T13:03:31;89015.50;;;0.25;70.37
8047;BME280;74083;42.516;23.358;2024-01-10T13:06:16;89026.22;;;0.26;70.18
8047;BME280;74083;42.516;23.358;2024-01-10T13:09:03;89022.88;;;0.27;70.86
8047;BME280;74083;42.516;23.358;2024-01-10T13:11:50;89028.53;;;0.32;71.13
8047;BME280;74083;42.516;23.358;2024-01-10T13:14:35;89022.75;;;0.31;70.47
8047;BME280;74083;42.516;23.358;2024-01-10T13:17:23;89030.03;;;0.37;71.30
8047;BME280;74083;42.516;23.358;2024-01-10T13:20:10;89026.75;;;0.35;70.58
8047;BME280;74083;42.516;23.358;2024-01-10T13:22:55;89030.75;;;0.41;70.72
8047;BME280;74083;42.516;23.358;2024-01-10T13:25:41;89024.19;;;0.38;70.01
8047;BME280;74083;42.516;23.358;2024-01-10T13:28:27;89030.06;;;0.36;70.51
8047;BME280;74083;42.516;23.358;2024-01-10T13:31:13;89033.44;;;0.33;70.43
8047;BME280;74083;42.516;23.358;2024-01-10T13:34:01;89029.38;;;0.31;70.16
8047;BME280;74083;42.516;23.358;2024-01-10T13:36:48;89027.75;;;0.30;69.96
8047;BME280;74083;42.516;23.358;2024-01-10T13:39:34;89037.56;;;0.33;70.31
8047;BME280;74083;42.516;23.358;2024-01-10T13:42:20;89032.63;;;0.33;70.20
8047;BME280;74083;42.516;23.358;2024-01-10T13:45:05;89035.09;;;0.33;70.15
8047;BME280;74083;42.516;23.358;2024-01-10T13:47:52;89043.25;;;0.36;70.52
8047;BME280;74083;42.516;23.358;2024-01-10T13:50:39;89035.00;;;0.36;70.43
8047;BME280;74083;42.516;23.358;2024-01-10T13:53:24;89039.13;;;0.37;70.39
8047;BME280;74083;42.516;23.358;2024-01-10T13:56:10;89036.66;;;0.35;70.19
8047;BME280;74083;42.516;23.358;2024-01-10T13:58:56;89041.69;;;0.34;69.77
8047;BME280;74083;42.516;23.358;2024-01-10T14:01:43;89034.34;;;0.31;70.12
8047;BME280;74083;42.516;23.358;2024-01-10T14:04:29;89034.25;;;0.34;70.17
8047;BME280;74083;42.516;23.358;2024-01-10T14:07:15;89046.59;;;0.35;70.07
8047;BME280;74083;42.516;23.358;2024-01-10T14:10:01;89044.97;;;0.34;69.85
8047;BME280;74083;42.516;23.358;2024-01-10T14:12:47;89040.91;;;0.32;69.96
8047;BME280;74083;42.516;23.358;2024-01-10T14:15:33;89041.75;;;0.31;69.91
8047;BME280;74083;42.516;23.358;2024-01-10T14:18:18;89037.66;;;0.30;69.78
8047;BME280;74083;42.516;23.358;2024-01-10T14:21:05;89040.22;;;0.27;69.98
8047;BME280;74083;42.516;23.358;2024-01-10T14:23:53;89042.75;;;0.25;69.73
8047;BME280;74083;42.516;23.358;2024-01-10T14:26:39;89037.88;;;0.22;69.96
8047;BME280;74083;42.516;23.358;2024-01-10T14:29:25;89034.66;;;0.19;69.78
8047;BME280;74083;42.516;23.358;2024-01-10T14:32:10;89033.84;;;0.18;70.09
8047;BME280;74083;42.516;23.358;2024-01-10T14:34:56;89034.72;;;0.16;69.92
8047;BME280;74083;42.516;23.358;2024-01-10T14:37:42;89035.59;;;0.15;69.96
8047;BME280;74083;42.516;23.358;2024-01-10T14:40:29;89035.56;;;0.16;69.80
8047;BME280;74083;42.516;23.358;2024-01-10T14:43:15;89038.84;;;0.17;69.60
8047;BME280;74083;42.516;23.358;2024-01-10T14:46:02;89037.91;;;0.21;69.49